createdAt,value
2023-06-20T00:01:06.594Z,100145.56
2023-06-20T00:03:09.482Z,100158.22
2023-06-20T00:05:12.326Z,100177.88
2023-06-20T00:07:15.201Z,100197.69
2023-06-20T00:09:18.060Z,100220.00
2023-06-20T00:11:20.835Z,100235.31
2023-06-20T00:13:24.997Z,100232.91
2023-06-20T00:15:29.605Z,100241.41
2023-06-20T00:17:32.486Z,100242.59
2023-06-20T00:19:35.633Z,100252.28
2023-06-20T00:21:40.916Z,100257.59
2023-06-20T00:23:43.943Z,100252.66
2023-06-20T00:25:46.965Z,100243.22
2023-06-20T00:27:49.872Z,100234.38
2023-06-20T00:29:52.718Z,100225.56
2023-06-20T00:31:57.121Z,100213.94
2023-06-20T00:34:00.044Z,100205.38
2023-06-20T00:36:02.921Z,100198.25
2023-06-20T00:38:05.927Z,100186.47
2023-06-20T00:40:12.236Z,100177.47
2023-06-20T00:42:19.229Z,100175.03
2023-06-20T00:44:22.380Z,100176.16
2023-06-20T00:46:25.463Z,100180.78
2023-06-20T00:48:31.593Z,100192.28
2023-06-20T00:50:35.597Z,100191.59
2023-06-20T00:52:38.457Z,100184.56
2023-06-20T00:54:42.416Z,100181.25
2023-06-20T00:56:46.597Z,100180.41
2023-06-20T00:58:49.410Z,100185.69
2023-06-20T01:00:52.326Z,100192.72
2023-06-20T01:02:58.418Z,100199.75
2023-06-20T01:05:02.796Z,100195.63
2023-06-20T01:07:14.053Z,100194.84
2023-06-20T01:09:22.468Z,100192.97
2023-06-20T01:11:34.120Z,100202.59
2023-06-20T01:13:48.084Z,100201.41
2023-06-20T01:16:01.425Z,100192.47
2023-06-20T01:18:12.080Z,100191.28
2023-06-20T01:20:22.300Z,100187.94
2023-06-20T01:22:45.399Z,100184.25
2023-06-20T01:24:55.066Z,100189.88
2023-06-20T01:27:03.713Z,100185.19
2023-06-20T01:29:14.621Z,100186.56
2023-06-20T01:31:20.123Z,100192.97
2023-06-20T01:33:30.538Z,100190.34
2023-06-20T01:35:36.696Z,100187.63
2023-06-20T01:37:43.764Z,100186.25
2023-06-20T01:39:48.428Z,100188.16
2023-06-20T01:41:55.355Z,100204.44
2023-06-20T01:44:03.744Z,100206.88
2023-06-20T01:46:09.139Z,100203.53
2023-06-20T01:48:13.713Z,100184.84
2023-06-20T01:50:19.308Z,100191.38
2023-06-20T01:52:23.208Z,100190.66
2023-06-20T01:54:31.026Z,100182.50
2023-06-20T01:56:35.532Z,100179.16
2023-06-20T01:58:41.768Z,100176.84
2023-06-20T02:00:46.191Z,100180.00
2023-06-20T02:02:49.309Z,100184.75
2023-06-20T02:04:58.046Z,100181.44
2023-06-20T02:07:01.288Z,100180.59
2023-06-20T02:09:05.612Z,100182.41
2023-06-20T02:11:10.421Z,100185.41
2023-06-20T02:13:13.765Z,100195.22
2023-06-20T02:15:18.036Z,100200.19
2023-06-20T02:17:22.049Z,100192.31
2023-06-20T02:19:24.983Z,100196.69
2023-06-20T02:21:33.751Z,100187.59
2023-06-20T02:23:39.141Z,100187.47
2023-06-20T02:25:46.208Z,100184.03
2023-06-20T02:27:54.697Z,100186.75
2023-06-20T02:29:58.575Z,100193.19
2023-06-20T02:32:04.749Z,100190.63
2023-06-20T02:34:10.717Z,100186.88
2023-06-20T02:36:14.450Z,100186.94
2023-06-20T02:38:17.403Z,100186.22
2023-06-20T02:40:24.235Z,100188.16
2023-06-20T02:42:28.635Z,100190.06
2023-06-20T02:44:34.157Z,100196.28
2023-06-20T02:46:47.228Z,100192.84
2023-06-20T02:49:00.722Z,100192.94
2023-06-20T02:51:08.198Z,100194.09
2023-06-20T02:53:20.805Z,100198.34
2023-06-20T02:55:29.286Z,100194.00
2023-06-20T02:57:33.483Z,100193.16
2023-06-20T02:59:40.305Z,100196.69
2023-06-20T03:01:48.193Z,100195.63
2023-06-20T03:03:53.382Z,100207.09
2023-06-20T03:05:59.310Z,100205.38
2023-06-20T03:08:02.501Z,100204.69
2023-06-20T03:10:07.330Z,100200.19
2023-06-20T03:12:10.629Z,100217.88
2023-06-20T03:14:14.265Z,100210.91
2023-06-20T03:16:18.878Z,100203.22
2023-06-20T03:18:21.729Z,100214.13
2023-06-20T03:20:24.906Z,100208.63
2023-06-20T03:22:28.356Z,100217.47
2023-06-20T03:24:31.199Z,100210.19
2023-06-20T03:26:34.350Z,100221.56
2023-06-20T03:28:37.253Z,100226.03
2023-06-20T03:30:40.229Z,100224.25
2023-06-20T03:32:45.802Z,100223.44
2023-06-20T03:34:48.698Z,100220.00
2023-06-20T03:36:51.507Z,100220.69
2023-06-20T03:38:54.437Z,100213.50
2023-06-20T03:41:00.977Z,100203.75
2023-06-20T03:43:04.568Z,100210.00
2023-06-20T03:45:09.743Z,100201.22
2023-06-20T03:47:14.163Z,100202.13
2023-06-20T03:49:19.052Z,100204.00
2023-06-20T03:51:22.745Z,100205.91
2023-06-20T03:53:26.729Z,100209.53
2023-06-20T03:55:29.582Z,100207.56
2023-06-20T03:57:32.417Z,100204.75
2023-06-20T03:59:35.290Z,100205.84
2023-06-20T04:01:38.632Z,100207.69
2023-06-20T04:03:41.487Z,100212.06
2023-06-20T04:05:45.696Z,100212.91
2023-06-20T04:07:48.579Z,100212.41
2023-06-20T04:09:51.364Z,100207.97
2023-06-20T04:11:54.944Z,100209.53
2023-06-20T04:13:57.777Z,100211.03
2023-06-20T04:16:00.899Z,100212.78
2023-06-20T04:18:03.920Z,100216.31
2023-06-20T04:20:12.738Z,100218.91
2023-06-20T04:22:17.394Z,100214.47
2023-06-20T04:24:21.120Z,100209.16
2023-06-20T04:26:24.074Z,100205.63
2023-06-20T04:28:26.935Z,100200.19
2023-06-20T04:30:34.858Z,100202.06
2023-06-20T04:32:38.761Z,100200.19
2023-06-20T04:34:42.434Z,100196.50
2023-06-20T04:36:45.277Z,100196.50
2023-06-20T04:38:49.715Z,100197.19
2023-06-20T04:40:53.199Z,100198.06
2023-06-20T04:42:56.439Z,100193.63
2023-06-20T04:44:59.384Z,100196.19
2023-06-20T04:47:03.720Z,100198.75
2023-06-20T04:49:06.535Z,100197.66
2023-06-20T04:51:11.343Z,100198.59
2023-06-20T04:53:14.211Z,100194.09
2023-06-20T04:55:22.120Z,100203.66
2023-06-20T04:57:27.276Z,100205.56
2023-06-20T04:59:30.918Z,100195.53
2023-06-20T05:01:34.387Z,100201.31
2023-06-20T05:03:39.495Z,100203.94
2023-06-20T05:05:42.663Z,100200.31
2023-06-20T05:07:45.788Z,100198.38
2023-06-20T05:09:48.856Z,100203.59
2023-06-20T05:11:53.069Z,100208.00
2023-06-20T05:13:55.977Z,100194.34
2023-06-20T05:15:58.889Z,100205.81
2023-06-20T05:18:01.847Z,100210.97
2023-06-20T05:20:07.580Z,100207.84
2023-06-20T05:22:10.625Z,100208.03
2023-06-20T05:24:13.585Z,100210.63
2023-06-20T05:26:16.530Z,100211.34
2023-06-20T05:28:20.736Z,100215.66
2023-06-20T05:30:24.004Z,100214.69
2023-06-20T05:32:27.183Z,100223.69
2023-06-20T05:34:30.174Z,100222.94
2023-06-20T05:36:33.005Z,100222.63
2023-06-20T05:38:37.789Z,100224.19
2023-06-20T05:40:40.826Z,100218.63
2023-06-20T05:42:43.820Z,100225.47
2023-06-20T05:44:48.009Z,100225.22
2023-06-20T05:46:50.953Z,100218.84
2023-06-20T05:48:53.793Z,100218.38
2023-06-20T05:50:56.631Z,100231.56
2023-06-20T05:53:01.212Z,100218.03
2023-06-20T05:55:04.474Z,100221.88
2023-06-20T05:57:07.809Z,100221.66
2023-06-20T05:59:10.657Z,100217.53
2023-06-20T06:01:15.284Z,100219.50
2023-06-20T06:03:20.030Z,100220.25
2023-06-20T06:05:25.202Z,100223.72
2023-06-20T06:07:28.173Z,100218.97
2023-06-20T06:09:31.076Z,100223.63
2023-06-20T06:11:33.900Z,100231.69
2023-06-20T06:13:36.866Z,100224.53
2023-06-20T06:15:43.047Z,100231.16
2023-06-20T06:17:54.497Z,100228.97
2023-06-20T06:19:57.175Z,100227.91
2023-06-20T06:22:00.898Z,100229.50
2023-06-20T06:24:04.968Z,100240.63
2023-06-20T06:26:09.003Z,100240.28
2023-06-20T06:28:11.859Z,100237.53
2023-06-20T06:30:16.548Z,100245.38
2023-06-20T06:32:21.193Z,100234.19
2023-06-20T06:34:27.244Z,100238.63
2023-06-20T06:36:32.156Z,100242.25
2023-06-20T06:38:35.115Z,100242.16
2023-06-20T06:40:38.653Z,100235.19
2023-06-20T06:42:41.633Z,100243.75
2023-06-20T06:44:44.607Z,100241.34
2023-06-20T06:46:47.559Z,100245.72
2023-06-20T06:48:50.695Z,100244.16
2023-06-20T06:50:55.867Z,100238.91
2023-06-20T06:52:58.797Z,100239.78
2023-06-20T06:55:01.794Z,100237.56
2023-06-20T06:57:05.152Z,100238.22
2023-06-20T06:59:08.453Z,100235.81
2023-06-20T07:01:11.287Z,100236.94
2023-06-20T07:03:16.266Z,100236.78
2023-06-20T07:05:20.622Z,100241.25
2023-06-20T07:07:24.804Z,100249.84
2023-06-20T07:09:27.660Z,100243.97
2023-06-20T07:11:30.500Z,100242.44
2023-06-20T07:13:33.352Z,100241.41
2023-06-20T07:15:36.160Z,100249.88
2023-06-20T07:17:39.021Z,100244.69
2023-06-20T07:19:42.178Z,100240.53
2023-06-20T07:21:44.999Z,100242.41
2023-06-20T07:23:49.200Z,100238.16
2023-06-20T07:25:51.999Z,100238.41
2023-06-20T07:27:54.822Z,100235.03
2023-06-20T07:29:57.755Z,100232.34
2023-06-20T07:32:00.632Z,100226.94
2023-06-20T07:34:03.585Z,100234.16
2023-06-20T07:36:09.378Z,100230.44
2023-06-20T07:38:12.398Z,100228.50
2023-06-20T07:40:16.673Z,100223.16
2023-06-20T07:42:19.295Z,100224.44
2023-06-20T07:44:22.535Z,100226.44
2023-06-20T07:46:25.839Z,100231.97
2023-06-20T07:48:29.386Z,100234.28
2023-06-20T07:50:35.648Z,100230.75
2023-06-20T07:52:39.907Z,100237.91
2023-06-20T07:54:43.628Z,100245.31
2023-06-20T07:56:47.808Z,100238.34
2023-06-20T07:58:50.472Z,100240.41
2023-06-20T08:00:53.450Z,100239.47
2023-06-20T08:02:56.335Z,100231.91
2023-06-20T08:04:59.294Z,100242.22
2023-06-20T08:07:02.149Z,100235.59
2023-06-20T08:09:06.205Z,100235.78
2023-06-20T08:11:09.136Z,100237.94
2023-06-20T08:13:13.393Z,100235.50
2023-06-20T08:15:16.065Z,100235.03
2023-06-20T08:17:18.967Z,100230.16
2023-06-20T08:19:21.830Z,100230.28
2023-06-20T08:21:24.754Z,100234.38
2023-06-20T08:23:27.815Z,100233.19
2023-06-20T08:25:30.844Z,100228.28
2023-06-20T08:27:33.862Z,100234.31
2023-06-20T08:29:38.089Z,100238.56
2023-06-20T08:31:51.006Z,100229.88
2023-06-20T08:33:53.842Z,100230.38
2023-06-20T08:35:56.685Z,100239.38
2023-06-20T08:37:59.551Z,100224.66
2023-06-20T08:40:03.686Z,100229.56
2023-06-20T08:42:06.688Z,100236.47
2023-06-20T08:44:09.630Z,100228.84
2023-06-20T08:46:13.827Z,100226.69
2023-06-20T08:48:16.730Z,100217.25
2023-06-20T08:50:19.633Z,100218.38
2023-06-20T08:52:29.961Z,100222.66
2023-06-20T08:54:38.898Z,100221.78
2023-06-20T08:56:42.151Z,100219.03
2023-06-20T08:58:44.982Z,100214.66
2023-06-20T09:00:48.951Z,100206.38
2023-06-20T09:02:53.735Z,100208.75
2023-06-20T09:05:04.244Z,100208.38
2023-06-20T09:07:17.706Z,100213.34
2023-06-20T09:09:20.711Z,100215.66
2023-06-20T09:11:26.804Z,100213.53
2023-06-20T09:13:30.623Z,100211.53
2023-06-20T09:15:34.691Z,100210.00
2023-06-20T09:17:37.642Z,100213.31
2023-06-20T09:19:45.968Z,100204.19
2023-06-20T09:21:57.510Z,100204.88
2023-06-20T09:24:11.036Z,100206.69
2023-06-20T09:26:18.515Z,100200.50
2023-06-20T09:28:21.319Z,100199.97
2023-06-20T09:30:26.313Z,100209.13
2023-06-20T09:32:35.272Z,100209.06
2023-06-20T09:34:39.750Z,100213.94
2023-06-20T09:36:44.422Z,100199.59
2023-06-20T09:38:53.430Z,100196.13
2023-06-20T09:40:56.288Z,100193.38
2023-06-20T09:42:59.763Z,100199.25
2023-06-20T09:45:02.625Z,100197.91
2023-06-20T09:47:06.452Z,100207.53
2023-06-20T09:49:09.648Z,100199.63
2023-06-20T09:51:12.531Z,100211.06
2023-06-20T09:53:24.250Z,100208.38
2023-06-20T09:55:27.994Z,100200.47
2023-06-20T09:57:38.053Z,100201.66
2023-06-20T09:59:43.985Z,100187.44
2023-06-20T10:01:49.590Z,100194.91
2023-06-20T10:03:53.335Z,100189.03
2023-06-20T10:05:57.962Z,100186.53
2023-06-20T10:08:02.064Z,100185.13
2023-06-20T10:10:06.453Z,100182.88
2023-06-20T10:12:11.479Z,100183.50
2023-06-20T10:14:15.294Z,100178.50
2023-06-20T10:16:18.232Z,100187.34
2023-06-20T10:18:36.054Z,100186.91
2023-06-20T10:20:39.330Z,100181.75
2023-06-20T10:22:44.868Z,100184.56
2023-06-20T10:24:51.299Z,100181.25
2023-06-20T10:26:57.335Z,100182.22
2023-06-20T10:29:01.743Z,100174.41
2023-06-20T10:31:04.834Z,100173.44
2023-06-20T10:33:10.161Z,100170.97
2023-06-20T10:35:16.730Z,100173.22
2023-06-20T10:37:39.169Z,100172.47
2023-06-20T10:39:53.114Z,100174.59
2023-06-20T10:41:57.313Z,100182.41
2023-06-20T10:44:01.576Z,100184.38
2023-06-20T10:46:04.475Z,100181.38
2023-06-20T10:48:07.300Z,100176.88
2023-06-20T10:50:11.574Z,100176.22
2023-06-20T10:52:14.458Z,100181.03
2023-06-20T10:54:18.872Z,100177.81
2023-06-20T10:56:29.552Z,100176.88
2023-06-20T10:58:35.332Z,100174.38
2023-06-20T11:00:38.219Z,100168.94
2023-06-20T11:02:41.330Z,100165.50
2023-06-20T11:04:44.487Z,100159.84
2023-06-20T11:06:48.696Z,100162.28
2023-06-20T11:08:51.570Z,100159.38
2023-06-20T11:10:55.476Z,100157.25
2023-06-20T11:12:58.919Z,100154.03
2023-06-20T11:15:21.096Z,100138.03
2023-06-20T11:17:32.079Z,100135.66
2023-06-20T11:19:37.744Z,100143.13
2023-06-20T11:21:41.178Z,100143.78
2023-06-20T11:23:44.017Z,100143.78
2023-06-20T11:25:46.936Z,100139.56
2023-06-20T11:27:49.821Z,100142.91
2023-06-20T11:29:52.646Z,100144.28
2023-06-20T11:32:10.867Z,100147.75
2023-06-20T11:34:15.568Z,100148.28
2023-06-20T11:36:18.642Z,100148.28
2023-06-20T11:38:22.885Z,100149.78
2023-06-20T11:40:26.303Z,100147.81
2023-06-20T11:42:35.061Z,100145.91
2023-06-20T11:44:37.964Z,100148.13
2023-06-20T11:46:45.974Z,100149.66
2023-06-20T11:48:57.628Z,100146.38
2023-06-20T11:51:02.217Z,100143.91
2023-06-20T11:53:05.865Z,100137.47
2023-06-20T11:55:09.262Z,100130.78
2023-06-20T11:57:12.808Z,100131.78
2023-06-20T11:59:22.912Z,100122.28
2023-06-20T12:01:26.449Z,100130.47
2023-06-20T12:03:29.464Z,100127.28
2023-06-20T12:05:34.147Z,100126.81
2023-06-20T12:07:49.922Z,100124.31
2023-06-20T12:09:53.214Z,100119.16
2023-06-20T12:11:57.525Z,100113.97
2023-06-20T12:14:00.419Z,100112.03
2023-06-20T12:16:03.523Z,100113.69
2023-06-20T12:18:06.528Z,100107.81
2023-06-20T12:20:28.451Z,100109.78
2023-06-20T12:22:35.635Z,100092.44
2023-06-20T12:24:38.509Z,100103.94
2023-06-20T12:26:41.640Z,100107.25
2023-06-20T12:28:44.508Z,100101.34
2023-06-20T12:30:47.332Z,100092.34
2023-06-20T12:32:50.202Z,100091.00
2023-06-20T12:34:53.061Z,100091.09
2023-06-20T12:36:55.939Z,100085.97
2023-06-20T12:39:01.633Z,100082.44
2023-06-20T12:41:04.870Z,100080.25
2023-06-20T12:43:07.749Z,100079.53
2023-06-20T12:45:11.796Z,100074.28
2023-06-20T12:47:14.471Z,100073.94
2023-06-20T12:49:17.287Z,100072.69
2023-06-20T12:51:20.131Z,100074.91
2023-06-20T12:53:23.095Z,100073.94
2023-06-20T12:55:27.363Z,100063.91
2023-06-20T12:57:30.453Z,100070.25
2023-06-20T12:59:33.342Z,100061.63
2023-06-20T13:01:36.282Z,100056.34
2023-06-20T13:03:41.167Z,100063.81
2023-06-20T13:05:44.382Z,100048.47
2023-06-20T13:07:48.212Z,100066.97
2023-06-20T13:09:51.607Z,100056.31
2023-06-20T13:11:55.788Z,100059.63
2023-06-20T13:13:58.642Z,100057.28
2023-06-20T13:16:01.838Z,100054.94
2023-06-20T13:18:05.905Z,100057.22
2023-06-20T13:20:10.519Z,100053.81
2023-06-20T13:22:14.548Z,100057.56
2023-06-20T13:24:17.417Z,100050.13
2023-06-20T13:26:21.582Z,100048.91
2023-06-20T13:28:25.726Z,100051.84
2023-06-20T13:30:28.859Z,100057.72
2023-06-20T13:32:32.163Z,100049.13
2023-06-20T13:34:35.205Z,100049.13
2023-06-20T13:36:38.021Z,100050.91
2023-06-20T13:38:41.760Z,100042.81
2023-06-20T13:40:44.685Z,100039.78
2023-06-20T13:42:49.233Z,100047.50
2023-06-20T13:44:53.423Z,100043.16
2023-06-20T13:46:57.606Z,100038.41
2023-06-20T13:49:00.618Z,100032.63
2023-06-20T13:51:03.494Z,100031.13
2023-06-20T13:53:07.035Z,100030.69
2023-06-20T13:55:12.362Z,100031.00
2023-06-20T13:57:15.180Z,100028.31
2023-06-20T13:59:18.146Z,100031.75
2023-06-20T14:01:23.369Z,100041.19
2023-06-20T14:03:27.132Z,100031.88
2023-06-20T14:05:30.056Z,100030.28
2023-06-20T14:07:35.016Z,100032.84
2023-06-20T14:09:38.218Z,100028.91
2023-06-20T14:11:41.060Z,100026.16
2023-06-20T14:13:43.902Z,100030.91
2023-06-20T14:15:46.767Z,100023.03
2023-06-20T14:17:52.770Z,100015.53
2023-06-20T14:19:55.730Z,100014.88
2023-06-20T14:21:59.514Z,100013.03
2023-06-20T14:24:02.594Z,99994.59
2023-06-20T14:26:05.745Z,100012.31
2023-06-20T14:28:08.756Z,100000.28
2023-06-20T14:30:14.806Z,100006.78
2023-06-20T14:32:20.857Z,100006.47
2023-06-20T14:34:24.985Z,100014.72
2023-06-20T14:36:28.460Z,100008.97
2023-06-20T14:38:31.211Z,100014.38
2023-06-20T14:40:34.282Z,100008.91
2023-06-20T14:42:37.234Z,100011.38
2023-06-20T14:44:41.840Z,100001.22
2023-06-20T14:46:44.680Z,100000.47
2023-06-20T14:48:49.800Z,99986.59
2023-06-20T14:50:54.842Z,99993.69
2023-06-20T14:52:57.968Z,99992.16
2023-06-20T14:55:02.472Z,99986.44
2023-06-20T14:57:06.226Z,99986.44
2023-06-20T14:59:09.043Z,99982.78
2023-06-20T15:01:12.799Z,99985.75
2023-06-20T15:03:15.922Z,99986.44
2023-06-20T15:05:19.043Z,99982.88
2023-06-20T15:07:29.758Z,99987.44
2023-06-20T15:09:32.610Z,99982.88
2023-06-20T15:11:35.421Z,99981.25
2023-06-20T15:13:38.260Z,99978.50
2023-06-20T15:15:41.028Z,99980.09
2023-06-20T15:17:43.888Z,99978.03
2023-06-20T15:19:46.801Z,99966.28
2023-06-20T15:21:49.586Z,99960.97
2023-06-20T15:23:53.879Z,99961.25
2023-06-20T15:25:56.679Z,99961.25
2023-06-20T15:27:59.518Z,99959.84
2023-06-20T15:30:02.516Z,99953.72
2023-06-20T15:32:06.176Z,99961.09
2023-06-20T15:34:08.980Z,99952.78
2023-06-20T15:36:12.041Z,99954.31
2023-06-20T15:38:15.019Z,99948.38
2023-06-20T15:40:20.685Z,99950.03
2023-06-20T15:42:25.273Z,99941.19
2023-06-20T15:44:28.066Z,99946.19
2023-06-20T15:46:40.698Z,99937.16
2023-06-20T15:48:58.741Z,99933.81
2023-06-20T15:51:01.563Z,99929.00
2023-06-20T15:53:04.487Z,99938.56
2023-06-20T15:55:09.206Z,99935.47
2023-06-20T15:57:13.440Z,99937.47
2023-06-20T15:59:17.681Z,99926.81
2023-06-20T16:01:20.878Z,99931.94
2023-06-20T16:03:23.846Z,99930.94
2023-06-20T16:05:26.746Z,99929.81
2023-06-20T16:07:29.570Z,99934.75
2023-06-20T16:09:32.397Z,99939.75
2023-06-20T16:11:35.952Z,99937.56
2023-06-20T16:13:41.147Z,99933.84
2023-06-20T16:15:44.014Z,99935.53
2023-06-20T16:17:46.886Z,99925.38
2023-06-20T16:19:49.915Z,99922.97
2023-06-20T16:21:52.846Z,99916.47
2023-06-20T16:23:55.644Z,99909.78
2023-06-20T16:25:58.554Z,99909.66
2023-06-20T16:28:01.457Z,99909.66
2023-06-20T16:30:06.648Z,99919.97
2023-06-20T16:32:09.742Z,99913.84
2023-06-20T16:34:12.602Z,99917.34
2023-06-20T16:36:15.453Z,99909.00
2023-06-20T16:38:18.219Z,99906.41
2023-06-20T16:40:21.067Z,99908.97
2023-06-20T16:42:23.882Z,99900.31
2023-06-20T16:44:26.777Z,99906.81
2023-06-20T16:46:30.971Z,99899.00
2023-06-20T16:48:33.806Z,99900.47
2023-06-20T16:50:36.822Z,99897.94
2023-06-20T16:52:40.637Z,99899.16
2023-06-20T16:54:43.303Z,99900.38
2023-06-20T16:56:46.095Z,99914.63
2023-06-20T16:58:48.960Z,99915.72
2023-06-20T17:00:51.924Z,99923.09
2023-06-20T17:02:56.232Z,99925.25
2023-06-20T17:04:59.562Z,99917.25
2023-06-20T17:07:02.450Z,99926.69
2023-06-20T17:09:05.247Z,99918.00
2023-06-20T17:11:08.367Z,99912.38
2023-06-20T17:13:11.170Z,99912.03
2023-06-20T17:15:14.164Z,99898.72
2023-06-20T17:17:17.006Z,99901.69
2023-06-20T17:19:21.161Z,99907.44
2023-06-20T17:21:24.161Z,99897.66
2023-06-20T17:23:27.033Z,99881.53
2023-06-20T17:25:29.819Z,99874.19
2023-06-20T17:27:32.676Z,99881.94
2023-06-20T17:29:35.481Z,99886.78
2023-06-20T17:31:38.397Z,99890.72
2023-06-20T17:33:41.277Z,99890.38
2023-06-20T17:35:45.474Z,99885.25
2023-06-20T17:37:49.518Z,99887.94
2023-06-20T17:39:56.857Z,99890.84
2023-06-20T17:42:00.132Z,99894.81
2023-06-20T17:44:03.217Z,99900.53
2023-06-20T17:46:06.038Z,99898.84
2023-06-20T17:48:09.029Z,99898.09
2023-06-20T17:50:15.919Z,99914.22
2023-06-20T17:52:21.967Z,99919.59
2023-06-20T17:54:24.816Z,99925.34
2023-06-20T17:56:27.736Z,99933.88
2023-06-20T17:58:30.503Z,99944.72
2023-06-20T18:00:33.354Z,99961.56
2023-06-20T18:02:36.300Z,99969.34
2023-06-20T18:04:39.181Z,99982.25
2023-06-20T18:06:42.188Z,99977.97
2023-06-20T18:08:46.427Z,99969.94
2023-06-20T18:10:49.268Z,99966.94
2023-06-20T18:12:52.692Z,99962.41
2023-06-20T18:14:55.471Z,99951.09
2023-06-20T18:16:58.320Z,99939.56
2023-06-20T18:19:01.178Z,99929.25
2023-06-20T18:21:04.043Z,99927.97
2023-06-20T18:23:09.159Z,99930.16
2023-06-20T18:25:14.733Z,99930.59
2023-06-20T18:27:17.642Z,99931.00
2023-06-20T18:29:21.694Z,99931.88
2023-06-20T18:31:24.418Z,99938.06
2023-06-20T18:33:27.910Z,99949.38
2023-06-20T18:35:30.763Z,99961.59
2023-06-20T18:37:33.659Z,99973.34
2023-06-20T18:39:36.510Z,99982.53
2023-06-20T18:41:41.447Z,99993.03
2023-06-20T18:43:44.280Z,100003.72
2023-06-20T18:45:47.251Z,100008.84
2023-06-20T18:47:50.468Z,100009.38
2023-06-20T18:49:55.548Z,100004.56
2023-06-20T18:51:58.465Z,100006.78
2023-06-20T18:54:01.271Z,100014.16
2023-06-20T18:56:04.465Z,100026.03
2023-06-20T18:58:08.622Z,100043.59
2023-06-20T19:00:12.639Z,100066.22
2023-06-20T19:02:15.526Z,100090.44
2023-06-20T19:04:18.626Z,100094.28
2023-06-20T19:06:21.748Z,100095.22
2023-06-20T19:08:24.564Z,100123.69
2023-06-20T19:10:27.714Z,100132.53
2023-06-20T19:12:30.749Z,100162.06
2023-06-20T19:14:35.048Z,100147.28
2023-06-20T19:16:37.862Z,100134.38
2023-06-20T19:18:40.822Z,100123.69
2023-06-20T19:20:43.862Z,100109.25
2023-06-20T19:22:49.921Z,100110.09
2023-06-20T19:24:53.209Z,100115.97
2023-06-20T19:26:56.092Z,100104.47
2023-06-20T19:28:58.977Z,100102.63
2023-06-20T19:31:03.326Z,100097.56
2023-06-20T19:33:07.395Z,100109.94
2023-06-20T19:35:10.789Z,100113.72
2023-06-20T19:37:13.631Z,100116.50
2023-06-20T19:39:16.478Z,100121.66
2023-06-20T19:41:19.302Z,100094.81
2023-06-20T19:43:22.138Z,100100.28
2023-06-20T19:45:33.712Z,100120.31
2023-06-20T19:47:39.210Z,100132.78
2023-06-20T19:49:42.327Z,100133.91
2023-06-20T19:51:45.628Z,100096.25
2023-06-20T19:53:48.469Z,100078.38
2023-06-20T19:55:51.387Z,100102.63
2023-06-20T19:57:54.395Z,100122.88
2023-06-20T19:59:57.566Z,100134.41
2023-06-20T20:02:00.821Z,100131.06
2023-06-20T20:04:07.615Z,100122.66
2023-06-20T20:06:10.742Z,100119.69
2023-06-20T20:08:13.677Z,100124.22
2023-06-20T20:10:16.621Z,100129.53
2023-06-20T20:12:19.641Z,100129.81
2023-06-20T20:14:22.525Z,100135.28
2023-06-20T20:16:25.406Z,100134.38
2023-06-20T20:18:29.293Z,100144.84
2023-06-20T20:20:33.884Z,100159.81
2023-06-20T20:22:36.952Z,100157.38
2023-06-20T20:24:40.040Z,100159.34
2023-06-20T20:26:42.956Z,100160.38
2023-06-20T20:28:45.994Z,100156.22
2023-06-20T20:30:48.878Z,100152.72
2023-06-20T20:32:51.889Z,100153.41
2023-06-20T20:34:54.813Z,100152.63
2023-06-20T20:36:59.031Z,100156.13
2023-06-20T20:39:01.684Z,100166.38
2023-06-20T20:41:05.111Z,100164.28
2023-06-20T20:43:08.386Z,100180.72
2023-06-20T20:45:12.081Z,100188.56
2023-06-20T20:47:15.770Z,100182.59
2023-06-20T20:49:18.599Z,100176.28
2023-06-20T20:51:21.792Z,100189.88
2023-06-20T20:53:25.966Z,100186.16
2023-06-20T20:55:30.705Z,100192.97
2023-06-20T20:57:33.562Z,100192.31
2023-06-20T20:59:36.475Z,100199.69
2023-06-20T21:01:39.376Z,100207.47
2023-06-20T21:03:42.552Z,100206.72
2023-06-20T21:05:45.492Z,100209.91
2023-06-20T21:07:48.333Z,100210.09
2023-06-20T21:09:52.544Z,100217.75
2023-06-20T21:11:55.392Z,100218.59
2023-06-20T21:13:58.179Z,100236.28
2023-06-20T21:16:01.076Z,100235.66
2023-06-20T21:18:05.834Z,100232.28
2023-06-20T21:20:10.277Z,100240.78
2023-06-20T21:22:13.468Z,100232.50
2023-06-20T21:24:16.303Z,100239.19
2023-06-20T21:26:20.452Z,100233.69
2023-06-20T21:28:25.714Z,100241.59
2023-06-20T21:30:29.244Z,100238.03
2023-06-20T21:32:32.266Z,100243.19
2023-06-20T21:34:35.199Z,100249.66
2023-06-20T21:36:38.215Z,100246.31
2023-06-20T21:38:41.246Z,100255.81
2023-06-20T21:40:44.106Z,100251.31
2023-06-20T21:42:48.280Z,100248.34
2023-06-20T21:44:51.073Z,100248.59
2023-06-20T21:46:55.153Z,100248.50
2023-06-20T21:48:58.105Z,100254.75
2023-06-20T21:51:00.948Z,100244.19
2023-06-20T21:53:03.789Z,100243.41
2023-06-20T21:55:07.575Z,100243.81
2023-06-20T21:57:11.521Z,100245.16
2023-06-20T21:59:15.715Z,100244.53
2023-06-20T22:01:18.426Z,100261.16
2023-06-20T22:03:21.424Z,100253.34
2023-06-20T22:05:24.572Z,100259.25
2023-06-20T22:07:27.497Z,100266.41
2023-06-20T22:09:30.564Z,100258.78
2023-06-20T22:11:33.571Z,100268.72
2023-06-20T22:13:37.037Z,100256.72
2023-06-20T22:15:41.232Z,100265.47
2023-06-20T22:17:44.107Z,100270.72
2023-06-20T22:19:47.015Z,100266.13
2023-06-20T22:21:49.864Z,100273.22
2023-06-20T22:23:52.787Z,100279.81
2023-06-20T22:25:57.726Z,100276.47
2023-06-20T22:28:00.566Z,100273.81
2023-06-20T22:30:03.505Z,100274.03
2023-06-20T22:32:08.745Z,100271.69
2023-06-20T22:34:11.656Z,100262.88
2023-06-20T22:36:14.511Z,100265.47
2023-06-20T22:38:17.530Z,100272.38
2023-06-20T22:40:20.453Z,100273.50
2023-06-20T22:42:24.163Z,100275.25
2023-06-20T22:44:28.319Z,100269.91
2023-06-20T22:46:31.196Z,100279.41
2023-06-20T22:48:35.450Z,100282.19
2023-06-20T22:50:39.149Z,100276.69
2023-06-20T22:52:42.117Z,100281.19
2023-06-20T22:54:45.539Z,100277.06
2023-06-20T22:56:48.440Z,100277.97
2023-06-20T22:58:51.267Z,100284.94
2023-06-20T23:00:54.081Z,100281.78
2023-06-20T23:02:59.010Z,100288.19
2023-06-20T23:05:05.231Z,100285.59
2023-06-20T23:07:08.322Z,100286.00
2023-06-20T23:09:11.256Z,100279.78
2023-06-20T23:11:14.187Z,100283.09
2023-06-20T23:13:17.076Z,100287.09
2023-06-20T23:15:20.179Z,100293.97
2023-06-20T23:17:23.232Z,100293.41
2023-06-20T23:19:26.066Z,100299.66
2023-06-20T23:21:30.429Z,100302.06
2023-06-20T23:23:34.713Z,100297.22
2023-06-20T23:25:41.623Z,100301.41
2023-06-20T23:27:46.072Z,100303.88
2023-06-20T23:29:48.770Z,100306.69
2023-06-20T23:31:51.683Z,100305.47
2023-06-20T23:33:54.577Z,100305.41
2023-06-20T23:35:57.629Z,100306.31
2023-06-20T23:38:02.155Z,100313.94
2023-06-20T23:40:10.301Z,100316.75
2023-06-20T23:42:13.128Z,100325.03
2023-06-20T23:44:16.075Z,100326.22